createdAt,value
2018-03-27T00:00:37.173Z,67.80
2018-03-27T00:03:04.232Z,67.80
2018-03-27T00:05:31.270Z,67.70
2018-03-27T00:07:58.282Z,68.10
2018-03-27T00:10:25.306Z,68.60
2018-03-27T00:12:52.411Z,69.00
2018-03-27T00:15:19.384Z,69.00
2018-03-27T00:17:46.374Z,69.10
2018-03-27T00:20:13.430Z,69.10
2018-03-27T00:22:40.480Z,69.20
2018-03-27T00:25:07.502Z,68.50
2018-03-27T00:27:52.990Z,68.90
2018-03-27T00:30:38.648Z,68.90
2018-03-27T00:33:24.869Z,68.30
2018-03-27T00:36:10.313Z,68.20
2018-03-27T00:38:55.797Z,68.40
2018-03-27T00:44:45.262Z,69.00
2018-03-27T00:47:12.306Z,68.40
2018-03-27T00:49:39.305Z,68.30
2018-03-27T00:52:07.065Z,68.70
2018-03-27T00:54:34.117Z,68.50
2018-03-27T00:57:01.144Z,68.70
2018-03-27T00:59:28.206Z,69.10
2018-03-27T01:01:55.230Z,69.10
2018-03-27T01:04:22.269Z,69.20
2018-03-27T01:06:49.421Z,68.60
2018-03-27T01:09:16.431Z,68.70
2018-03-27T01:11:43.481Z,69.00
2018-03-27T01:14:11.289Z,69.50
2018-03-27T01:16:38.281Z,69.50
2018-03-27T01:19:06.016Z,71.10
2018-03-27T01:21:33.082Z,70.10
2018-03-27T01:24:00.203Z,70.00
2018-03-27T01:26:27.213Z,70.00
2018-03-27T01:28:54.241Z,69.40
2018-03-27T01:31:21.989Z,70.30
2018-03-27T01:33:49.078Z,70.30
2018-03-27T01:36:16.103Z,70.40
2018-03-27T01:38:43.115Z,70.30
2018-03-27T01:41:10.144Z,70.40
2018-03-27T01:43:38.199Z,70.70
2018-03-27T01:46:05.209Z,70.20
2018-03-27T01:48:32.960Z,70.60
2018-03-27T01:50:59.948Z,70.50
2018-03-27T01:53:27.033Z,70.60
2018-03-27T01:55:54.293Z,70.40
2018-03-27T01:58:21.351Z,70.00
2018-03-27T02:00:48.350Z,70.00
2018-03-27T02:03:15.419Z,69.60
2018-03-27T02:05:42.450Z,69.60
2018-03-27T02:08:09.437Z,69.70
2018-03-27T02:10:36.347Z,70.30
2018-03-27T02:13:10.542Z,70.80
2018-03-27T02:15:43.579Z,70.90
2018-03-27T02:18:17.370Z,71.60
2018-03-27T02:20:50.460Z,71.30
2018-03-27T02:23:20.517Z,71.50
2018-03-27T02:25:47.526Z,71.00
2018-03-27T02:28:14.550Z,72.30
2018-03-27T02:30:41.819Z,72.20
2018-03-27T02:33:08.938Z,71.70
2018-03-27T02:35:35.961Z,71.50
2018-03-27T02:38:03.009Z,71.50
2018-03-27T02:40:30.069Z,71.90
2018-03-27T02:42:57.184Z,71.70
2018-03-27T02:45:24.234Z,71.80
2018-03-27T02:47:51.254Z,72.10
2018-03-27T02:50:18.271Z,71.60
2018-03-27T02:52:45.271Z,72.10
2018-03-27T02:55:12.326Z,72.10
2018-03-27T02:57:40.129Z,72.20
2018-03-27T03:00:07.245Z,71.40
2018-03-27T03:02:34.224Z,71.30
2018-03-27T03:05:01.273Z,71.20
2018-03-27T03:07:28.363Z,71.60
2018-03-27T03:09:55.354Z,71.60
2018-03-27T03:12:23.097Z,72.00
2018-03-27T03:14:50.886Z,72.30
2018-03-27T03:17:17.900Z,72.20
2018-03-27T03:19:44.896Z,71.90
2018-03-27T03:22:11.945Z,72.10
2018-03-27T03:24:39.105Z,72.30
2018-03-27T03:27:06.342Z,71.80
2018-03-27T03:29:34.274Z,71.30
2018-03-27T03:32:02.181Z,71.40
2018-03-27T03:34:29.329Z,71.40
2018-03-27T03:36:56.533Z,71.60
2018-03-27T03:39:23.798Z,71.80
2018-03-27T03:41:50.842Z,71.90
2018-03-27T03:44:18.647Z,71.90
2018-03-27T03:46:45.677Z,71.80
2018-03-27T03:49:12.685Z,71.90
2018-03-27T03:51:39.862Z,72.20
2018-03-27T03:54:06.940Z,72.20
2018-03-27T03:56:33.937Z,71.90
2018-03-27T03:59:01.173Z,72.00
2018-03-27T04:01:28.293Z,72.20
2018-03-27T04:03:55.329Z,72.00
2018-03-27T04:06:22.391Z,71.90
2018-03-27T04:08:49.678Z,71.90
2018-03-27T04:11:16.741Z,71.70
2018-03-27T04:13:43.825Z,72.00
2018-03-27T04:16:10.885Z,72.00
2018-03-27T04:18:37.893Z,72.80
2018-03-27T04:21:04.878Z,72.50
2018-03-27T04:23:32.046Z,73.30
2018-03-27T04:25:59.062Z,72.00
2018-03-27T04:28:26.056Z,72.20
2018-03-27T04:30:53.509Z,72.50
2018-03-27T04:33:21.534Z,71.90
2018-03-27T04:35:48.587Z,71.90
2018-03-27T04:38:15.609Z,72.60
2018-03-27T04:40:43.408Z,73.30
2018-03-27T04:43:11.525Z,73.30
2018-03-27T04:45:38.530Z,73.50
2018-03-27T04:48:05.537Z,73.30
2018-03-27T04:50:32.577Z,73.30
2018-03-27T04:53:00.424Z,73.50
2018-03-27T04:55:28.752Z,73.50
2018-03-27T04:57:55.859Z,73.20
2018-03-27T05:00:23.209Z,73.10
2018-03-27T05:02:52.863Z,73.10
2018-03-27T05:05:20.195Z,73.10
2018-03-27T05:07:47.421Z,72.70
2018-03-27T05:10:14.570Z,72.70
2018-03-27T05:12:41.908Z,72.60
2018-03-27T05:15:09.114Z,72.80
2018-03-27T05:17:36.238Z,73.10
2018-03-27T05:20:04.342Z,72.80
2018-03-27T05:22:31.449Z,72.70
2018-03-27T05:24:58.645Z,72.50
2018-03-27T05:27:25.877Z,72.70
2018-03-27T05:29:53.045Z,72.60
2018-03-27T05:32:21.354Z,73.00
2018-03-27T05:34:48.847Z,73.00
2018-03-27T05:37:16.650Z,72.90
2018-03-27T05:39:43.826Z,72.70
2018-03-27T05:42:11.082Z,71.90
2018-03-27T05:44:39.168Z,71.60
2018-03-27T05:47:06.548Z,71.60
2018-03-27T05:49:34.470Z,71.70
2018-03-27T05:52:01.536Z,71.70
2018-03-27T05:54:29.319Z,71.40
2018-03-27T05:56:56.446Z,71.10
2018-03-27T05:59:23.487Z,70.90
2018-03-27T06:01:50.614Z,70.50
2018-03-27T06:04:18.612Z,70.50
2018-03-27T06:06:45.689Z,70.50
2018-03-27T06:09:12.738Z,70.40
2018-03-27T06:11:40.026Z,69.80
2018-03-27T06:14:07.195Z,69.40
2018-03-27T06:16:34.247Z,69.50
2018-03-27T06:19:02.373Z,68.80
2018-03-27T06:21:30.208Z,68.50
2018-03-27T06:23:57.325Z,68.40
2018-03-27T06:26:24.402Z,68.30
2018-03-27T06:28:51.857Z,68.30
2018-03-27T06:31:18.934Z,69.30
2018-03-27T06:33:46.060Z,69.50
2018-03-27T06:36:13.892Z,69.40
2018-03-27T06:38:41.747Z,69.20
2018-03-27T06:41:09.623Z,67.80
2018-03-27T06:43:36.749Z,67.80
2018-03-27T06:46:03.862Z,67.40
2018-03-27T06:48:31.018Z,67.30
2018-03-27T06:50:58.150Z,67.50
2018-03-27T06:53:25.941Z,67.90
2018-03-27T06:55:53.149Z,67.90
2018-03-27T06:58:20.299Z,68.00
2018-03-27T07:00:47.364Z,67.70
2018-03-27T07:03:14.471Z,67.40
2018-03-27T07:05:42.235Z,67.10
2018-03-27T07:08:09.302Z,67.80
2018-03-27T07:10:36.476Z,68.60
2018-03-27T07:13:03.654Z,68.70
2018-03-27T07:15:30.752Z,69.70
2018-03-27T07:17:57.820Z,69.70
2018-03-27T07:20:25.713Z,69.30
2018-03-27T07:22:52.753Z,69.30
2018-03-27T07:25:19.805Z,69.30
2018-03-27T07:27:46.834Z,69.10
2018-03-27T07:30:13.838Z,68.50
2018-03-27T07:32:42.298Z,67.50
2018-03-27T07:35:09.373Z,67.40
2018-03-27T07:37:36.605Z,67.50
2018-03-27T07:40:03.887Z,67.20
2018-03-27T07:42:31.032Z,66.60
2018-03-27T07:44:58.152Z,66.90
2018-03-27T07:47:25.258Z,66.70
2018-03-27T07:49:53.073Z,66.10
2018-03-27T07:52:20.152Z,66.10
2018-03-27T07:54:47.723Z,66.30
2018-03-27T07:57:14.956Z,66.70
2018-03-27T07:59:42.006Z,66.10
2018-03-27T08:02:09.134Z,65.80
2018-03-27T08:04:36.278Z,65.50
2018-03-27T08:07:03.584Z,65.60
2018-03-27T08:09:30.733Z,65.70
2018-03-27T08:11:57.754Z,65.90
2018-03-27T08:14:24.857Z,65.90
2018-03-27T08:16:51.951Z,64.70
2018-03-27T08:19:18.994Z,65.30
2018-03-27T08:21:46.042Z,65.40
2018-03-27T08:24:13.091Z,66.00
2018-03-27T08:26:40.101Z,64.90
2018-03-27T08:29:07.108Z,64.10
2018-03-27T08:31:34.096Z,63.70
2018-03-27T08:34:01.120Z,63.50
2018-03-27T08:36:28.152Z,63.60
2018-03-27T08:38:55.166Z,64.00
2018-03-27T08:41:22.192Z,63.90
2018-03-27T08:43:49.209Z,64.40
2018-03-27T08:46:16.268Z,64.30
2018-03-27T08:48:44.010Z,63.90
2018-03-27T08:51:11.740Z,62.70
2018-03-27T08:53:38.768Z,62.70
2018-03-27T08:56:05.818Z,61.90
2018-03-27T08:58:32.857Z,61.00
2018-03-27T09:01:00.593Z,60.00
2018-03-27T09:03:27.646Z,60.00
2018-03-27T09:05:54.645Z,61.20
2018-03-27T09:08:21.674Z,60.90
2018-03-27T09:10:48.708Z,60.10
2018-03-27T09:13:16.448Z,59.40
2018-03-27T09:15:43.450Z,59.40
2018-03-27T09:18:10.494Z,60.00
2018-03-27T09:20:37.510Z,58.90
2018-03-27T09:23:04.521Z,57.40
2018-03-27T09:25:31.585Z,57.40
2018-03-27T09:27:58.578Z,57.50
2018-03-27T09:30:25.573Z,57.80
2018-03-27T09:32:52.585Z,58.00
2018-03-27T09:35:19.869Z,56.30
2018-03-27T09:37:46.914Z,57.30
2018-03-27T09:40:14.037Z,56.90
2018-03-27T09:42:41.275Z,56.20
2018-03-27T09:45:08.422Z,55.60
2018-03-27T09:47:35.433Z,56.50
2018-03-27T09:50:02.498Z,56.10
2018-03-27T09:52:29.578Z,56.40
2018-03-27T09:54:56.873Z,56.90
2018-03-27T09:57:24.102Z,56.40
2018-03-27T09:59:51.174Z,57.00
2018-03-27T10:02:18.917Z,56.40
2018-03-27T10:04:45.941Z,56.40
2018-03-27T10:07:12.987Z,57.00
2018-03-27T10:09:40.046Z,56.60
2018-03-27T10:12:07.074Z,57.00
2018-03-27T10:14:34.097Z,56.80
2018-03-27T10:17:01.102Z,56.80
2018-03-27T10:19:28.168Z,56.60
2018-03-27T10:21:55.922Z,54.50
2018-03-27T10:24:22.916Z,54.50
2018-03-27T10:26:49.941Z,55.00
2018-03-27T10:29:16.965Z,53.90
2018-03-27T10:31:43.982Z,54.30
2018-03-27T10:34:11.811Z,53.50
2018-03-27T10:36:38.942Z,51.90
2018-03-27T10:39:06.030Z,49.00
2018-03-27T10:41:33.130Z,46.70
2018-03-27T10:44:00.961Z,47.10
2018-03-27T10:46:28.062Z,46.90
2018-03-27T10:48:55.887Z,46.30
2018-03-27T10:51:22.913Z,46.20
2018-03-27T10:53:50.194Z,46.30
2018-03-27T10:56:17.245Z,45.20
2018-03-27T10:58:44.478Z,46.40
2018-03-27T11:01:11.694Z,46.80
2018-03-27T11:03:38.814Z,46.90
2018-03-27T11:06:06.650Z,44.90
2018-03-27T11:08:33.731Z,44.70
2018-03-27T11:11:01.282Z,43.90
2018-03-27T11:13:28.404Z,44.60
2018-03-27T11:15:55.450Z,44.30
2018-03-27T11:18:22.505Z,43.90
2018-03-27T11:20:50.419Z,41.40
2018-03-27T11:23:17.517Z,41.30
2018-03-27T11:25:45.735Z,40.40
2018-03-27T11:28:12.910Z,39.90
2018-03-27T11:30:39.989Z,40.20
2018-03-27T11:33:06.992Z,36.60
2018-03-27T11:35:34.898Z,35.40
2018-03-27T11:38:02.044Z,35.40
2018-03-27T11:40:29.143Z,34.60
2018-03-27T11:42:57.055Z,33.30
2018-03-27T11:45:24.081Z,33.20
2018-03-27T11:47:51.182Z,35.20
2018-03-27T11:50:18.190Z,34.20
2018-03-27T11:52:45.263Z,33.20
2018-03-27T11:55:12.796Z,34.40
2018-03-27T11:57:39.880Z,31.70
2018-03-27T12:00:06.940Z,31.70
2018-03-27T12:02:34.074Z,31.90
2018-03-27T12:05:01.248Z,32.90
2018-03-27T12:07:28.452Z,34.10
2018-03-27T12:09:55.453Z,34.50
2018-03-27T12:12:22.482Z,33.40
2018-03-27T12:14:49.618Z,32.20
2018-03-27T12:17:16.712Z,32.10
2018-03-27T12:19:43.787Z,32.30
2018-03-27T12:22:10.898Z,31.30
2018-03-27T12:24:39.132Z,31.50
2018-03-27T12:27:13.290Z,31.40
2018-03-27T12:29:40.446Z,32.30
2018-03-27T12:32:07.742Z,33.20
2018-03-27T12:34:34.883Z,33.50
2018-03-27T12:37:01.962Z,32.90
2018-03-27T12:39:29.073Z,31.60
2018-03-27T12:41:56.520Z,29.90
2018-03-27T12:44:23.615Z,30.40
2018-03-27T12:46:50.712Z,30.00
2018-03-27T12:49:17.790Z,30.60
2018-03-27T12:51:44.915Z,31.60
2018-03-27T12:54:11.942Z,33.20
2018-03-27T12:56:39.060Z,34.10
2018-03-27T12:59:06.355Z,33.70
2018-03-27T13:01:34.201Z,28.90
2018-03-27T13:04:01.314Z,28.70
2018-03-27T13:06:28.349Z,27.80
2018-03-27T13:08:55.518Z,26.90
2018-03-27T13:11:22.770Z,26.50
2018-03-27T13:13:49.784Z,25.90
2018-03-27T13:16:17.045Z,25.70
2018-03-27T13:18:44.239Z,25.80
2018-03-27T13:21:11.239Z,25.60
2018-03-27T13:23:38.265Z,26.80
2018-03-27T13:26:05.274Z,29.10
2018-03-27T13:28:32.276Z,30.30
2018-03-27T13:30:59.642Z,29.30
2018-03-27T13:33:27.030Z,29.10
2018-03-27T13:35:54.820Z,26.80
2018-03-27T13:38:21.825Z,26.80
2018-03-27T13:40:48.928Z,26.80
2018-03-27T13:43:15.991Z,27.60
2018-03-27T13:45:43.089Z,27.80
2018-03-27T13:48:10.700Z,28.00
2018-03-27T13:50:37.809Z,30.00
2018-03-27T13:53:04.834Z,29.70
2018-03-27T13:55:31.864Z,29.10
2018-03-27T13:57:58.897Z,27.80
2018-03-27T14:00:25.915Z,26.00
2018-03-27T14:02:52.946Z,24.80
2018-03-27T14:05:19.966Z,23.90
2018-03-27T14:07:46.973Z,24.90
2018-03-27T14:10:14.761Z,25.00
2018-03-27T14:12:41.720Z,24.90
2018-03-27T14:15:08.785Z,26.10
2018-03-27T14:17:35.786Z,26.20
2018-03-27T14:20:02.859Z,25.50
2018-03-27T14:22:30.578Z,26.90
2018-03-27T14:24:57.561Z,27.40
2018-03-27T14:27:24.593Z,28.40
2018-03-27T14:29:51.598Z,30.80
2018-03-27T14:32:18.617Z,33.40
2018-03-27T14:34:45.632Z,32.30
2018-03-27T14:37:12.966Z,33.30
2018-03-27T14:39:40.278Z,34.90
2018-03-27T14:42:08.073Z,41.20
2018-03-27T14:44:35.456Z,41.20
2018-03-27T14:47:03.288Z,47.50
2018-03-27T14:49:30.478Z,47.40
2018-03-27T14:51:57.634Z,47.60
2018-03-27T14:54:24.790Z,48.60
2018-03-27T14:56:51.831Z,51.30
2018-03-27T14:59:19.582Z,55.30
2018-03-27T15:01:47.326Z,57.20
2018-03-27T15:04:14.459Z,57.20
2018-03-27T15:06:42.403Z,56.40
2018-03-27T15:09:10.209Z,56.90
2018-03-27T15:11:37.454Z,57.00
2018-03-27T15:14:04.573Z,56.00
2018-03-27T15:16:31.643Z,57.40
2018-03-27T15:18:58.658Z,58.60
2018-03-27T15:21:25.709Z,59.50
2018-03-27T15:23:52.752Z,60.00
2018-03-27T15:26:19.790Z,59.80
2018-03-27T15:28:46.832Z,60.50
2018-03-27T15:31:14.545Z,61.30
2018-03-27T15:33:41.713Z,61.20
2018-03-27T15:36:09.463Z,59.70
2018-03-27T15:38:36.772Z,61.00
2018-03-27T15:41:03.803Z,61.70
2018-03-27T15:43:31.604Z,63.00
2018-03-27T15:45:58.633Z,63.00
2018-03-27T15:48:25.636Z,63.50
2018-03-27T15:50:52.686Z,64.20
2018-03-27T15:53:19.782Z,62.90
2018-03-27T15:55:46.785Z,65.00
2018-03-27T15:58:13.761Z,63.70
2018-03-27T16:00:41.532Z,64.40
2018-03-27T16:03:08.581Z,64.30
2018-03-27T16:05:35.573Z,64.20
2018-03-27T16:08:02.616Z,64.70
2018-03-27T16:10:29.630Z,63.60
2018-03-27T16:12:56.671Z,63.00
2018-03-27T16:15:24.401Z,65.80
2018-03-27T16:17:52.157Z,65.60
2018-03-27T16:20:19.928Z,65.50
2018-03-27T16:22:46.942Z,65.50
2018-03-27T16:25:14.032Z,66.20
2018-03-27T16:27:41.101Z,64.70
2018-03-27T16:30:08.369Z,64.90
2018-03-27T16:32:35.445Z,65.10
2018-03-27T16:35:02.663Z,63.70
2018-03-27T16:37:29.777Z,66.20
2018-03-27T16:39:57.544Z,66.50
2018-03-27T16:42:25.278Z,66.70
2018-03-27T16:44:52.402Z,66.70
2018-03-27T16:47:19.421Z,66.80
2018-03-27T16:49:46.630Z,67.30
2018-03-27T16:52:13.629Z,66.70
2018-03-27T16:54:40.672Z,67.60
2018-03-27T16:57:07.719Z,67.50
2018-03-27T16:59:34.913Z,66.90
2018-03-27T17:02:01.985Z,67.90
2018-03-27T17:04:29.806Z,66.90
2018-03-27T17:06:56.816Z,66.90
2018-03-27T17:09:24.205Z,67.80
2018-03-27T17:11:52.013Z,68.80
2018-03-27T17:14:19.817Z,69.20
2018-03-27T17:16:46.805Z,69.00
2018-03-27T17:19:13.824Z,69.50
2018-03-27T17:21:40.848Z,68.00
2018-03-27T17:24:07.906Z,69.10
2018-03-27T17:26:34.934Z,68.60
2018-03-27T17:29:01.973Z,69.60
2018-03-27T17:31:29.029Z,70.40
2018-03-27T17:33:56.121Z,71.00
2018-03-27T17:36:23.138Z,71.20
2018-03-27T17:38:50.149Z,70.90
2018-03-27T17:41:17.926Z,72.40
2018-03-27T17:43:46.754Z,71.70
2018-03-27T17:46:13.756Z,71.60
2018-03-27T17:48:40.848Z,72.20
2018-03-27T17:51:07.942Z,72.50
2018-03-27T17:53:35.749Z,74.20
2018-03-27T17:56:02.834Z,73.50
2018-03-27T17:58:29.861Z,74.50
2018-03-27T18:00:56.897Z,74.50
2018-03-27T18:03:23.991Z,75.10
2018-03-27T18:05:51.010Z,74.60
2018-03-27T18:08:18.038Z,75.10
2018-03-27T18:10:45.077Z,75.10
2018-03-27T18:13:12.846Z,74.80
2018-03-27T18:15:39.837Z,74.80
2018-03-27T18:18:06.874Z,75.30
2018-03-27T18:20:33.883Z,75.60
2018-03-27T18:23:00.864Z,75.30
2018-03-27T18:25:27.918Z,75.60
2018-03-27T18:27:54.981Z,75.10
2018-03-27T18:30:21.953Z,74.30
2018-03-27T18:32:48.989Z,74.90
2018-03-27T18:35:16.081Z,74.50
2018-03-27T18:37:44.100Z,74.80
2018-03-27T18:40:11.123Z,74.60
2018-03-27T18:42:38.157Z,75.00
2018-03-27T18:45:05.218Z,74.70
2018-03-27T18:47:32.271Z,74.70
2018-03-27T18:50:00.047Z,75.60
2018-03-27T18:52:27.854Z,75.40
2018-03-27T18:54:54.940Z,75.30
2018-03-27T18:57:21.963Z,75.30
2018-03-27T18:59:49.513Z,75.60
2018-03-27T19:02:17.209Z,76.10
2018-03-27T19:04:45.079Z,76.70
2018-03-27T19:07:12.104Z,76.60
2018-03-27T19:09:39.121Z,76.80
2018-03-27T19:12:06.188Z,76.90
2018-03-27T19:14:33.265Z,76.40
2018-03-27T19:17:00.356Z,76.10
2018-03-27T19:19:28.306Z,75.70
2018-03-27T19:21:55.381Z,76.00
2018-03-27T19:24:23.169Z,75.70
2018-03-27T19:26:50.214Z,75.60
2018-03-27T19:29:17.252Z,76.30
2018-03-27T19:31:44.614Z,76.30
2018-03-27T19:34:13.425Z,76.50
2018-03-27T19:36:40.454Z,77.30
2018-03-27T19:39:07.774Z,77.40
2018-03-27T19:41:36.476Z,76.50
2018-03-27T19:44:03.593Z,77.30
2018-03-27T19:46:37.696Z,76.00
2018-03-27T19:49:05.415Z,77.00
2018-03-27T19:51:34.153Z,76.60
2018-03-27T19:54:02.172Z,76.70
2018-03-27T19:56:29.194Z,77.00
2018-03-27T19:58:57.205Z,76.60
2018-03-27T20:01:25.263Z,76.60
2018-03-27T20:03:52.945Z,77.20
2018-03-27T20:06:19.960Z,76.90
2018-03-27T20:08:46.997Z,77.10
2018-03-27T20:11:15.157Z,77.80
2018-03-27T20:13:42.241Z,77.80
2018-03-27T20:16:09.685Z,77.20
2018-03-27T20:18:36.693Z,76.90
2018-03-27T20:21:04.469Z,76.50
2018-03-27T20:23:31.601Z,76.30
2018-03-27T20:25:59.469Z,77.00
2018-03-27T20:28:28.180Z,76.60
2018-03-27T20:30:57.171Z,76.60
2018-03-27T20:33:24.365Z,76.40
2018-03-27T20:35:52.200Z,76.60
2018-03-27T20:38:21.058Z,76.60
2018-03-27T20:40:48.078Z,77.40
2018-03-27T20:43:15.189Z,77.20
2018-03-27T20:45:42.418Z,76.60
2018-03-27T20:48:10.281Z,77.20
2018-03-27T20:50:37.279Z,77.00
2018-03-27T20:53:05.137Z,77.30
2018-03-27T20:55:33.408Z,76.80
2018-03-27T20:58:07.317Z,76.80
2018-03-27T21:00:35.126Z,77.30
2018-03-27T21:03:02.272Z,77.30
2018-03-27T21:05:29.426Z,78.00
2018-03-27T21:07:57.259Z,78.80
2018-03-27T21:10:24.302Z,78.80
2018-03-27T21:12:51.417Z,78.20
2018-03-27T21:15:18.402Z,77.80
2018-03-27T21:17:46.184Z,77.60
2018-03-27T21:20:14.016Z,76.70
2018-03-27T21:22:41.104Z,76.60
2018-03-27T21:25:08.233Z,76.30
2018-03-27T21:27:35.316Z,76.40
2018-03-27T21:30:02.421Z,76.80
2018-03-27T21:32:30.185Z,76.80
2018-03-27T21:34:58.050Z,76.80
2018-03-27T21:37:25.070Z,76.80
2018-03-27T21:39:52.085Z,76.70
2018-03-27T21:42:19.129Z,76.70
2018-03-27T21:44:46.396Z,77.60
2018-03-27T21:47:13.417Z,78.70
2018-03-27T21:49:40.409Z,77.50
2018-03-27T21:52:07.514Z,77.90
2018-03-27T21:54:34.569Z,77.10
2018-03-27T21:57:01.622Z,77.10
2018-03-27T21:59:28.813Z,76.80
2018-03-27T22:01:55.817Z,76.80
2018-03-27T22:04:24.929Z,77.00
2018-03-27T22:06:51.987Z,77.60
2018-03-27T22:09:18.981Z,77.50
2018-03-27T22:11:46.001Z,77.40
2018-03-27T22:14:13.142Z,77.10
2018-03-27T22:16:40.128Z,76.60
2018-03-27T22:19:07.153Z,77.20
2018-03-27T22:21:34.929Z,77.90
2018-03-27T22:24:02.753Z,77.60
2018-03-27T22:26:29.754Z,77.60
2018-03-27T22:28:56.773Z,77.30
2018-03-27T22:31:23.836Z,78.40
2018-03-27T22:33:50.935Z,77.80
2018-03-27T22:36:17.948Z,77.80
2018-03-27T22:38:45.684Z,77.40
2018-03-27T22:41:12.712Z,77.30
2018-03-27T22:43:40.766Z,77.50
2018-03-27T22:46:07.809Z,78.40
2018-03-27T22:48:34.836Z,78.50
2018-03-27T22:51:01.846Z,78.80
2018-03-27T22:53:29.649Z,79.00
2018-03-27T22:55:56.694Z,78.90
2018-03-27T22:58:24.566Z,78.90
2018-03-27T23:00:51.608Z,78.30
2018-03-27T23:03:18.661Z,78.20
2018-03-27T23:05:45.662Z,78.10
2018-03-27T23:08:12.654Z,77.80
2018-03-27T23:10:39.686Z,78.20
2018-03-27T23:13:07.741Z,78.20
2018-03-27T23:16:02.030Z,77.30
2018-03-27T23:18:29.071Z,77.20
2018-03-27T23:20:56.126Z,78.10
2018-03-27T23:23:23.218Z,78.10
2018-03-27T23:25:50.246Z,78.10
2018-03-27T23:28:17.254Z,78.20
2018-03-27T23:30:45.025Z,78.10
2018-03-27T23:33:12.074Z,78.10
2018-03-27T23:35:39.809Z,79.20
2018-03-27T23:38:06.858Z,79.20
2018-03-27T23:40:34.622Z,79.20
2018-03-27T23:43:02.400Z,78.20
2018-03-27T23:45:29.431Z,78.20
2018-03-27T23:47:56.439Z,78.30
2018-03-27T23:50:23.462Z,78.20
2018-03-27T23:52:50.502Z,78.60
2018-03-27T23:55:17.554Z,79.30
2018-03-27T23:57:44.661Z,78.80
